createdAt,value
2023-01-27T00:00:12.042Z,1024.70
2023-01-27T00:01:11.954Z,1024.70
2023-01-27T00:02:12.219Z,1024.63
2023-01-27T00:03:12.436Z,1024.66
2023-01-27T00:04:12.695Z,1024.63
2023-01-27T00:05:12.968Z,1024.64
2023-01-27T00:06:13.280Z,1024.67
2023-01-27T00:07:13.476Z,1024.68
2023-01-27T00:08:13.768Z,1024.65
2023-01-27T00:09:14.015Z,1024.65
2023-01-27T00:10:14.601Z,1024.64
2023-01-27T00:11:14.603Z,1024.64
2023-01-27T00:12:14.777Z,1024.61
2023-01-27T00:13:15.042Z,1024.60
2023-01-27T00:14:15.298Z,1024.62
2023-01-27T00:15:15.550Z,1024.61
2023-01-27T00:16:15.933Z,1024.63
2023-01-27T00:17:16.041Z,1024.64
2023-01-27T00:18:16.561Z,1024.62
2023-01-27T00:19:16.538Z,1024.67
2023-01-27T00:20:16.799Z,1024.68
2023-01-27T00:21:17.051Z,1024.64
2023-01-27T00:22:17.328Z,1024.69
2023-01-27T00:23:17.592Z,1024.67
2023-01-27T00:24:17.865Z,1024.63
2023-01-27T00:25:18.057Z,1024.63
2023-01-27T00:26:18.403Z,1024.64
2023-01-27T00:27:18.597Z,1024.61
2023-01-27T00:28:18.849Z,1024.65
2023-01-27T00:29:19.113Z,1024.65
2023-01-27T00:30:19.373Z,1024.64
2023-01-27T00:31:19.759Z,1024.70
2023-01-27T00:32:19.902Z,1024.65
2023-01-27T00:33:20.169Z,1024.66
2023-01-27T00:34:20.434Z,1024.64
2023-01-27T00:35:20.693Z,1024.61
2023-01-27T00:36:20.990Z,1024.67
2023-01-27T00:37:21.204Z,1024.70
2023-01-27T00:38:21.464Z,1024.66
2023-01-27T00:39:21.728Z,1024.70
2023-01-27T00:40:21.988Z,1024.73
2023-01-27T00:41:22.325Z,1024.68
2023-01-27T00:42:22.504Z,1024.66
2023-01-27T00:43:22.752Z,1024.67
2023-01-27T00:44:23.014Z,1024.66
2023-01-27T00:45:23.290Z,1024.67
2023-01-27T00:46:23.680Z,1024.65
2023-01-27T00:47:23.822Z,1024.65
2023-01-27T00:48:24.064Z,1024.71
2023-01-27T00:49:24.293Z,1024.64
2023-01-27T00:50:24.643Z,1024.69
2023-01-27T00:51:24.795Z,1024.72
2023-01-27T00:52:25.007Z,1024.72
2023-01-27T00:53:25.241Z,1024.76
2023-01-27T00:54:25.472Z,1024.75
2023-01-27T00:55:25.824Z,1024.80
2023-01-27T00:56:25.958Z,1024.76
2023-01-27T00:57:26.247Z,1024.79
2023-01-27T00:58:26.406Z,1024.82
2023-01-27T00:59:26.636Z,1024.81
2023-01-27T01:00:26.938Z,1024.81
2023-01-27T01:01:27.129Z,1024.80
2023-01-27T01:02:27.336Z,1024.85
2023-01-27T01:03:27.573Z,1024.85
2023-01-27T01:04:27.789Z,1024.85
2023-01-27T01:05:28.037Z,1024.80
2023-01-27T01:06:28.249Z,1024.86
2023-01-27T01:07:28.471Z,1024.81
2023-01-27T01:08:28.705Z,1024.78
2023-01-27T01:09:28.974Z,1024.84
2023-01-27T01:10:29.170Z,1024.81
2023-01-27T01:11:29.414Z,1024.79
2023-01-27T01:12:29.609Z,1024.83
2023-01-27T01:13:29.828Z,1024.89
2023-01-27T01:14:30.074Z,1024.92
2023-01-27T01:15:30.257Z,1024.86
2023-01-27T01:16:30.544Z,1024.87
2023-01-27T01:17:30.712Z,1024.91
2023-01-27T01:18:30.943Z,1024.93
2023-01-27T01:19:31.244Z,1024.94
2023-01-27T01:20:31.435Z,1024.98
2023-01-27T01:21:31.662Z,1025.01
2023-01-27T01:22:31.881Z,1025.04
2023-01-27T01:23:32.105Z,1025.05
2023-01-27T01:24:32.384Z,1025.10
2023-01-27T01:25:32.549Z,1025.10
2023-01-27T01:26:32.789Z,1025.06
2023-01-27T01:27:32.996Z,1025.03
2023-01-27T01:28:33.227Z,1025.07
2023-01-27T01:29:33.480Z,1025.03
2023-01-27T01:30:33.701Z,1025.06
2023-01-27T01:31:34.009Z,1025.08
2023-01-27T01:32:34.240Z,1025.08
2023-01-27T01:33:34.395Z,1025.08
2023-01-27T01:34:34.783Z,1025.09
2023-01-27T01:35:34.912Z,1025.10
2023-01-27T01:36:35.185Z,1025.12
2023-01-27T01:37:35.452Z,1025.16
2023-01-27T01:38:35.730Z,1025.16
2023-01-27T01:39:36.051Z,1025.11
2023-01-27T01:40:36.252Z,1025.11
2023-01-27T01:41:36.533Z,1025.16
2023-01-27T01:42:36.758Z,1025.15
2023-01-27T01:43:37.011Z,1025.14
2023-01-27T01:44:37.336Z,1025.13
2023-01-27T01:45:37.539Z,1025.15
2023-01-27T01:46:38.021Z,1025.12
2023-01-27T01:47:38.110Z,1025.18
2023-01-27T01:48:38.317Z,1025.16
2023-01-27T01:49:38.594Z,1025.23
2023-01-27T01:50:38.813Z,1025.21
2023-01-27T01:51:39.124Z,1025.18
2023-01-27T01:52:39.333Z,1025.21
2023-01-27T01:53:39.590Z,1025.22
2023-01-27T01:54:39.850Z,1025.25
2023-01-27T01:55:40.110Z,1025.15
2023-01-27T01:56:40.437Z,1025.24
2023-01-27T01:57:40.655Z,1025.25
2023-01-27T01:58:40.922Z,1025.25
2023-01-27T01:59:41.193Z,1025.28
2023-01-27T02:00:41.468Z,1025.28
2023-01-27T02:01:41.834Z,1025.28
2023-01-27T02:02:42.101Z,1025.31
2023-01-27T02:03:42.284Z,1025.32
2023-01-27T02:04:42.580Z,1025.34
2023-01-27T02:05:42.816Z,1025.33
2023-01-27T02:06:43.095Z,1025.37
2023-01-27T02:07:43.348Z,1025.37
2023-01-27T02:08:43.548Z,1025.38
2023-01-27T02:09:43.780Z,1025.34
2023-01-27T02:10:44.027Z,1025.37
2023-01-27T02:11:44.311Z,1025.32
2023-01-27T02:12:44.595Z,1025.38
2023-01-27T02:13:44.778Z,1025.37
2023-01-27T02:14:45.029Z,1025.34
2023-01-27T02:15:45.259Z,1025.34
2023-01-27T02:16:45.563Z,1025.36
2023-01-27T02:17:45.943Z,1025.46
2023-01-27T02:18:46.025Z,1025.40
2023-01-27T02:19:46.306Z,1025.43
2023-01-27T02:20:46.598Z,1025.41
2023-01-27T02:21:48.782Z,1025.38
2023-01-27T02:22:47.170Z,1025.38
2023-01-27T02:23:47.417Z,1025.35
2023-01-27T02:24:47.730Z,1025.38
2023-01-27T02:25:47.966Z,1025.38
2023-01-27T02:26:48.253Z,1025.39
2023-01-27T02:27:48.494Z,1025.35
2023-01-27T02:28:48.794Z,1025.36
2023-01-27T02:29:49.027Z,1025.37
2023-01-27T02:30:49.424Z,1025.35
2023-01-27T02:31:49.917Z,1025.34
2023-01-27T02:32:49.841Z,1025.42
2023-01-27T02:33:50.119Z,1025.42
2023-01-27T02:34:50.396Z,1025.45
2023-01-27T02:35:50.682Z,1025.39
2023-01-27T02:36:51.189Z,1025.47
2023-01-27T02:37:51.266Z,1025.49
2023-01-27T02:38:51.534Z,1025.53
2023-01-27T02:39:51.817Z,1025.57
2023-01-27T02:40:52.090Z,1025.57
2023-01-27T02:41:52.431Z,1025.56
2023-01-27T02:42:52.663Z,1025.58
2023-01-27T02:43:52.957Z,1025.54
2023-01-27T02:44:53.278Z,1025.54
2023-01-27T02:45:53.594Z,1025.55
2023-01-27T02:46:53.820Z,1025.49
2023-01-27T02:47:54.089Z,1025.51
2023-01-27T02:48:54.555Z,1025.50
2023-01-27T02:49:54.629Z,1025.49
2023-01-27T02:50:54.900Z,1025.52
2023-01-27T02:51:55.161Z,1025.55
2023-01-27T02:52:55.425Z,1025.55
2023-01-27T02:53:55.743Z,1025.57
2023-01-27T02:54:55.959Z,1025.59
2023-01-27T02:55:56.229Z,1025.56
2023-01-27T02:56:56.675Z,1025.51
2023-01-27T02:57:56.784Z,1025.59
2023-01-27T02:58:57.067Z,1025.54
2023-01-27T02:59:57.319Z,1025.58
2023-01-27T03:00:57.589Z,1025.61
2023-01-27T03:01:58.018Z,1025.60
2023-01-27T03:02:58.127Z,1025.60
2023-01-27T03:03:58.408Z,1025.59
2023-01-27T03:04:58.702Z,1025.58
2023-01-27T03:05:58.978Z,1025.60
2023-01-27T03:06:59.301Z,1025.59
2023-01-27T03:07:59.525Z,1025.63
2023-01-27T03:08:59.810Z,1025.59
2023-01-27T03:10:00.101Z,1025.62
2023-01-27T03:11:00.351Z,1025.58
2023-01-27T03:12:00.805Z,1025.65
2023-01-27T03:13:00.888Z,1025.59
2023-01-27T03:14:01.153Z,1025.66
2023-01-27T03:15:01.422Z,1025.65
2023-01-27T03:16:01.822Z,1025.66
2023-01-27T03:17:02.026Z,1025.69
2023-01-27T03:18:02.264Z,1025.62
2023-01-27T03:19:02.546Z,1025.66
2023-01-27T03:20:02.806Z,1025.66
2023-01-27T03:21:03.088Z,1025.69
2023-01-27T03:22:03.492Z,1025.67
2023-01-27T03:23:03.644Z,1025.70
2023-01-27T03:24:04.009Z,1025.67
2023-01-27T03:25:04.225Z,1025.65
2023-01-27T03:26:04.521Z,1025.73
2023-01-27T03:27:04.855Z,1025.73
2023-01-27T03:28:05.084Z,1025.73
2023-01-27T03:29:05.360Z,1025.78
2023-01-27T03:30:05.823Z,1025.81
2023-01-27T03:31:06.055Z,1025.85
2023-01-27T03:32:06.182Z,1025.86
2023-01-27T03:33:06.464Z,1025.83
2023-01-27T03:34:06.736Z,1025.80
2023-01-27T03:35:07.159Z,1025.81
2023-01-27T03:36:07.298Z,1025.87
2023-01-27T03:37:07.570Z,1025.89
2023-01-27T03:38:07.832Z,1025.87
2023-01-27T03:39:08.094Z,1025.90
2023-01-27T03:40:08.634Z,1025.91
2023-01-27T03:41:08.633Z,1025.89
2023-01-27T03:42:08.941Z,1025.89
2023-01-27T03:43:09.189Z,1025.88
2023-01-27T03:44:09.474Z,1025.90
2023-01-27T03:45:09.978Z,1025.94
2023-01-27T03:46:10.091Z,1025.98
2023-01-27T03:47:10.328Z,1025.98
2023-01-27T03:48:10.581Z,1026.00
2023-01-27T03:49:10.887Z,1026.01
2023-01-27T03:50:11.133Z,1026.00
2023-01-27T03:51:11.403Z,1026.04
2023-01-27T03:52:11.675Z,1026.06
2023-01-27T03:53:11.934Z,1026.03
2023-01-27T03:54:12.319Z,1026.04
2023-01-27T03:55:12.807Z,1026.00
2023-01-27T03:56:12.759Z,1026.02
2023-01-27T03:57:13.028Z,1026.00
2023-01-27T03:58:13.271Z,1026.03
2023-01-27T03:59:13.587Z,1026.06
2023-01-27T04:00:13.839Z,1026.01
2023-01-27T04:01:14.161Z,1026.04
2023-01-27T04:02:14.423Z,1026.09
2023-01-27T04:03:14.672Z,1026.12
2023-01-27T04:04:14.943Z,1026.10
2023-01-27T04:05:15.749Z,1026.15
2023-01-27T04:06:15.511Z,1026.12
2023-01-27T04:07:15.820Z,1026.06
2023-01-27T04:08:16.063Z,1026.04
2023-01-27T04:09:16.346Z,1026.02
2023-01-27T04:10:16.627Z,1026.09
2023-01-27T04:11:16.891Z,1026.06
2023-01-27T04:12:17.585Z,1025.97
2023-01-27T04:13:17.441Z,1025.99
2023-01-27T04:14:17.732Z,1026.04
2023-01-27T04:15:18.003Z,1026.04
2023-01-27T04:16:18.285Z,1026.04
2023-01-27T04:17:18.615Z,1026.07
2023-01-27T04:18:18.855Z,1026.10
2023-01-27T04:19:19.134Z,1026.09
2023-01-27T04:20:19.418Z,1026.06
2023-01-27T04:21:19.718Z,1026.01
2023-01-27T04:22:20.035Z,1026.03
2023-01-27T04:23:20.244Z,1026.08
2023-01-27T04:24:20.564Z,1026.11
2023-01-27T04:25:20.780Z,1026.10
2023-01-27T04:26:21.043Z,1026.12
2023-01-27T04:27:21.469Z,1026.10
2023-01-27T04:28:37.337Z,1026.12
2023-01-27T04:29:21.867Z,1026.18
2023-01-27T04:30:22.148Z,1026.18
2023-01-27T04:31:22.475Z,1026.22
2023-01-27T04:32:22.775Z,1026.22
2023-01-27T04:33:22.987Z,1026.19
2023-01-27T04:34:23.259Z,1026.17
2023-01-27T04:35:27.850Z,1026.18
2023-01-27T04:36:23.813Z,1026.15
2023-01-27T04:37:24.097Z,1026.13
2023-01-27T04:38:24.343Z,1026.18
2023-01-27T04:39:24.621Z,1026.16
2023-01-27T04:40:24.902Z,1026.14
2023-01-27T04:41:25.181Z,1026.17
2023-01-27T04:42:25.536Z,1026.18
2023-01-27T04:43:25.728Z,1026.18
2023-01-27T04:44:26.370Z,1026.22
2023-01-27T04:45:26.279Z,1026.20
2023-01-27T04:46:26.508Z,1026.23
2023-01-27T04:47:26.910Z,1026.19
2023-01-27T04:48:27.043Z,1026.21
2023-01-27T04:49:27.453Z,1026.25
2023-01-27T04:50:27.575Z,1026.19
2023-01-27T04:51:27.843Z,1026.21
2023-01-27T04:52:28.155Z,1026.21
2023-01-27T04:53:28.375Z,1026.24
2023-01-27T04:54:28.662Z,1026.26
2023-01-27T04:55:28.956Z,1026.25
2023-01-27T04:56:29.210Z,1026.26
2023-01-27T04:57:29.522Z,1026.26
2023-01-27T04:58:29.780Z,1026.27
2023-01-27T04:59:30.043Z,1026.28
2023-01-27T05:00:30.292Z,1026.28
2023-01-27T05:01:30.598Z,1026.32
2023-01-27T05:02:30.885Z,1026.27
2023-01-27T05:03:31.101Z,1026.29
2023-01-27T05:04:31.365Z,1026.29
2023-01-27T05:05:31.631Z,1026.32
2023-01-27T05:06:31.910Z,1026.35
2023-01-27T05:07:32.375Z,1026.37
2023-01-27T05:08:32.429Z,1026.41
2023-01-27T05:09:32.722Z,1026.40
2023-01-27T05:10:32.971Z,1026.44
2023-01-27T05:11:33.255Z,1026.45
2023-01-27T05:12:33.561Z,1026.47
2023-01-27T05:13:33.786Z,1026.44
2023-01-27T05:14:34.043Z,1026.46
2023-01-27T05:15:34.341Z,1026.46
2023-01-27T05:16:34.556Z,1026.46
2023-01-27T05:17:34.746Z,1026.44
2023-01-27T05:18:34.980Z,1026.45
2023-01-27T05:19:35.255Z,1026.46
2023-01-27T05:20:35.450Z,1026.49
2023-01-27T05:21:35.693Z,1026.53
2023-01-27T05:22:35.933Z,1026.45
2023-01-27T05:23:36.178Z,1026.48
2023-01-27T05:24:36.489Z,1026.44
2023-01-27T05:25:36.633Z,1026.43
2023-01-27T05:26:36.874Z,1026.44
2023-01-27T05:27:37.131Z,1026.46
2023-01-27T05:28:37.345Z,1026.44
2023-01-27T05:29:37.749Z,1026.45
2023-01-27T05:30:37.883Z,1026.40
2023-01-27T05:31:38.284Z,1026.34
2023-01-27T05:32:38.328Z,1026.30
2023-01-27T05:33:38.571Z,1026.26
2023-01-27T05:34:38.837Z,1026.36
2023-01-27T05:35:39.048Z,1026.38
2023-01-27T05:36:39.289Z,1026.37
2023-01-27T05:37:39.529Z,1026.37
2023-01-27T05:38:39.768Z,1026.32
2023-01-27T05:39:40.048Z,1026.31
2023-01-27T05:40:40.261Z,1026.26
2023-01-27T05:41:40.494Z,1026.32
2023-01-27T05:42:40.749Z,1026.28
2023-01-27T05:43:40.954Z,1026.31
2023-01-27T05:44:41.258Z,1026.34
2023-01-27T05:45:41.433Z,1026.35
2023-01-27T05:46:41.732Z,1026.28
2023-01-27T05:47:41.923Z,1026.31
2023-01-27T05:48:42.164Z,1026.34
2023-01-27T05:49:42.456Z,1026.33
2023-01-27T05:50:42.655Z,1026.36
2023-01-27T05:51:42.897Z,1026.38
2023-01-27T05:52:43.155Z,1026.40
2023-01-27T05:53:43.423Z,1026.47
2023-01-27T05:54:43.763Z,1026.51
2023-01-27T05:55:43.921Z,1026.47
2023-01-27T05:56:44.158Z,1026.48
2023-01-27T05:57:44.454Z,1026.55
2023-01-27T05:58:44.701Z,1026.54
2023-01-27T05:59:44.965Z,1026.55
2023-01-27T06:00:45.266Z,1026.57
2023-01-27T06:01:45.528Z,1026.67
2023-01-27T06:02:45.648Z,1026.67
2023-01-27T06:03:45.891Z,1026.71
2023-01-27T06:04:46.193Z,1026.70
2023-01-27T06:05:46.326Z,1026.73
2023-01-27T06:06:46.553Z,1026.73
2023-01-27T06:07:46.813Z,1026.75
2023-01-27T06:08:47.063Z,1026.77
2023-01-27T06:09:47.314Z,1026.78
2023-01-27T06:10:47.534Z,1026.77
2023-01-27T06:11:47.771Z,1026.77
2023-01-27T06:12:48.046Z,1026.76
2023-01-27T06:13:48.304Z,1026.80
2023-01-27T06:14:48.529Z,1026.78
2023-01-27T06:15:48.775Z,1026.75
2023-01-27T06:16:49.276Z,1026.77
2023-01-27T06:17:50.947Z,1026.72
2023-01-27T06:18:49.547Z,1026.77
2023-01-27T06:19:49.773Z,1026.79
2023-01-27T06:20:50.015Z,1026.77
2023-01-27T06:21:50.405Z,1026.81
2023-01-27T06:22:50.515Z,1026.86
2023-01-27T06:23:50.797Z,1026.82
2023-01-27T06:24:50.950Z,1026.82
2023-01-27T06:25:51.201Z,1026.84
2023-01-27T06:26:51.560Z,1026.83
2023-01-27T06:27:51.744Z,1026.85
2023-01-27T06:28:51.973Z,1026.86
2023-01-27T06:29:52.223Z,1026.85
2023-01-27T06:30:52.508Z,1026.86
2023-01-27T06:31:52.778Z,1026.90
2023-01-27T06:32:53.004Z,1026.86
2023-01-27T06:33:53.349Z,1026.89
2023-01-27T06:34:53.505Z,1026.90
2023-01-27T06:35:53.759Z,1026.95
2023-01-27T06:36:54.037Z,1026.95
2023-01-27T06:37:54.255Z,1026.97
2023-01-27T06:38:54.542Z,1026.99
2023-01-27T06:39:54.751Z,1027.00
2023-01-27T06:40:55.011Z,1027.04
2023-01-27T06:41:55.275Z,1027.11
2023-01-27T06:42:55.575Z,1027.12
2023-01-27T06:43:55.844Z,1027.19
2023-01-27T06:44:56.077Z,1027.18
2023-01-27T06:45:56.353Z,1027.20
2023-01-27T06:46:56.587Z,1027.20
2023-01-27T06:47:56.838Z,1027.24
2023-01-27T06:48:57.446Z,1027.23
2023-01-27T06:49:57.367Z,1027.23
2023-01-27T06:50:57.624Z,1027.21
2023-01-27T06:51:57.881Z,1027.23
2023-01-27T06:52:58.125Z,1027.24
2023-01-27T06:53:58.421Z,1027.22
2023-01-27T06:54:58.609Z,1027.20
2023-01-27T06:55:58.838Z,1027.21
2023-01-27T06:56:59.097Z,1027.29
2023-01-27T06:57:59.361Z,1027.30
2023-01-27T06:58:59.626Z,1027.34
2023-01-27T06:59:59.848Z,1027.37
2023-01-27T07:01:00.150Z,1027.35
2023-01-27T07:02:00.361Z,1027.33
2023-01-27T07:03:00.613Z,1027.37
2023-01-27T07:04:00.905Z,1027.39
2023-01-27T07:05:01.100Z,1027.41
2023-01-27T07:06:01.339Z,1027.46
2023-01-27T07:07:01.589Z,1027.44
2023-01-27T07:08:01.850Z,1027.48
2023-01-27T07:09:02.116Z,1027.45
2023-01-27T07:10:02.343Z,1027.45
2023-01-27T07:11:02.590Z,1027.47
2023-01-27T07:12:02.835Z,1027.45
2023-01-27T07:13:03.114Z,1027.46
2023-01-27T07:14:03.375Z,1027.47
2023-01-27T07:15:03.607Z,1027.49
2023-01-27T07:16:03.885Z,1027.50
2023-01-27T07:17:04.139Z,1027.52
2023-01-27T07:18:04.490Z,1027.53
2023-01-27T07:19:04.685Z,1027.56
2023-01-27T07:20:04.948Z,1027.53
2023-01-27T07:21:05.202Z,1027.54
2023-01-27T07:22:05.461Z,1027.58
2023-01-27T07:23:05.833Z,1027.63
2023-01-27T07:24:06.007Z,1027.64
2023-01-27T07:25:06.238Z,1027.66
2023-01-27T07:26:19.246Z,1027.62
2023-01-27T07:27:06.754Z,1027.63
2023-01-27T07:28:07.074Z,1027.68
2023-01-27T07:29:07.260Z,1027.71
2023-01-27T07:30:07.584Z,1027.70
2023-01-27T07:31:07.904Z,1027.72
2023-01-27T07:32:08.105Z,1027.76
2023-01-27T07:33:08.301Z,1027.77
2023-01-27T07:34:08.560Z,1027.81
2023-01-27T07:35:08.866Z,1027.80
2023-01-27T07:36:09.091Z,1027.86
2023-01-27T07:37:09.356Z,1027.86
2023-01-27T07:38:09.611Z,1027.83
2023-01-27T07:39:09.931Z,1027.82
2023-01-27T07:40:10.132Z,1027.83
2023-01-27T07:41:10.405Z,1027.85
2023-01-27T07:42:10.679Z,1027.87
2023-01-27T07:43:10.969Z,1027.83
2023-01-27T07:44:11.245Z,1027.82
2023-01-27T07:45:11.484Z,1027.83
2023-01-27T07:46:11.789Z,1027.84
2023-01-27T07:47:11.997Z,1027.82
2023-01-27T07:48:12.267Z,1027.84
2023-01-27T07:49:12.559Z,1027.83
2023-01-27T07:50:13.157Z,1027.85
2023-01-27T07:51:13.092Z,1027.89
2023-01-27T07:52:13.327Z,1027.87
2023-01-27T07:53:13.590Z,1027.85
2023-01-27T07:54:13.860Z,1027.88
2023-01-27T07:55:14.455Z,1027.90
2023-01-27T07:56:14.420Z,1027.89
2023-01-27T07:57:14.639Z,1027.93
2023-01-27T07:58:14.928Z,1027.92
2023-01-27T07:59:15.187Z,1027.93
2023-01-27T08:00:15.821Z,1027.93
2023-01-27T08:01:15.818Z,1027.94
2023-01-27T08:02:15.991Z,1027.97
2023-01-27T08:03:16.339Z,1027.98
2023-01-27T08:04:16.538Z,1027.99
2023-01-27T08:05:16.820Z,1027.97
2023-01-27T08:06:17.128Z,1027.99
2023-01-27T08:07:17.325Z,1028.00
2023-01-27T08:08:17.596Z,1028.03
2023-01-27T08:09:17.878Z,1027.98
2023-01-27T08:10:18.111Z,1027.99
2023-01-27T08:11:18.499Z,1027.97
2023-01-27T08:12:18.636Z,1028.03
2023-01-27T08:13:18.960Z,1028.04
2023-01-27T08:14:19.161Z,1028.00
2023-01-27T08:15:19.516Z,1027.97
2023-01-27T08:16:19.728Z,1028.05
2023-01-27T08:17:19.969Z,1028.02
2023-01-27T08:18:20.213Z,1028.05
2023-01-27T08:19:20.500Z,1028.08
2023-01-27T08:20:20.764Z,1028.08
2023-01-27T08:21:21.043Z,1028.08
2023-01-27T08:22:21.343Z,1028.10
2023-01-27T08:23:21.756Z,1028.10
2023-01-27T08:24:21.932Z,1028.07
2023-01-27T08:25:22.132Z,1028.12
2023-01-27T08:26:22.384Z,1028.06
2023-01-27T08:27:22.663Z,1028.08
2023-01-27T08:28:22.993Z,1028.05
2023-01-27T08:29:23.182Z,1028.08
2023-01-27T08:30:23.479Z,1028.08
2023-01-27T08:31:23.700Z,1028.09
2023-01-27T08:32:23.872Z,1028.09
2023-01-27T08:33:24.144Z,1028.12
2023-01-27T08:34:24.380Z,1028.08
2023-01-27T08:35:24.597Z,1028.12
2023-01-27T08:36:24.845Z,1028.20
2023-01-27T08:37:25.045Z,1028.20
2023-01-27T08:38:25.327Z,1028.25
2023-01-27T08:39:25.527Z,1028.18
2023-01-27T08:40:25.817Z,1028.21
2023-01-27T08:41:25.992Z,1028.18
2023-01-27T08:42:26.495Z,1028.26
2023-01-27T08:43:26.632Z,1028.26
2023-01-27T08:44:26.707Z,1028.25
2023-01-27T08:45:26.941Z,1028.28
2023-01-27T08:46:27.201Z,1028.26
2023-01-27T08:47:27.411Z,1028.21
2023-01-27T08:48:27.765Z,1028.21
2023-01-27T08:49:27.859Z,1028.25
2023-01-27T08:50:28.076Z,1028.27
2023-01-27T08:51:28.293Z,1028.30
2023-01-27T08:52:28.530Z,1028.28
2023-01-27T08:53:28.786Z,1028.32
2023-01-27T08:54:28.977Z,1028.26
2023-01-27T08:55:29.212Z,1028.32
2023-01-27T08:56:29.453Z,1028.34
2023-01-27T08:57:29.698Z,1028.36
2023-01-27T08:58:30.005Z,1028.37
2023-01-27T08:59:30.248Z,1028.34
2023-01-27T09:00:30.445Z,1028.40
2023-01-27T09:01:30.761Z,1028.40
2023-01-27T09:02:30.937Z,1028.40
2023-01-27T09:03:31.199Z,1028.38
2023-01-27T09:04:31.512Z,1028.41
2023-01-27T09:05:31.696Z,1028.43
2023-01-27T09:06:31.963Z,1028.43
2023-01-27T09:07:32.232Z,1028.42
2023-01-27T09:08:32.491Z,1028.46
2023-01-27T09:09:32.812Z,1028.45
2023-01-27T09:10:33.031Z,1028.49
2023-01-27T09:11:33.293Z,1028.51
2023-01-27T09:12:33.556Z,1028.53
2023-01-27T09:13:34.013Z,1028.56
2023-01-27T09:14:34.106Z,1028.56
2023-01-27T09:15:34.347Z,1028.59
2023-01-27T09:16:34.693Z,1028.64
2023-01-27T09:17:34.880Z,1028.63
2023-01-27T09:18:35.098Z,1028.62
2023-01-27T09:19:35.343Z,1028.63
2023-01-27T09:20:35.591Z,1028.64
2023-01-27T09:21:35.835Z,1028.68
2023-01-27T09:22:36.120Z,1028.68
2023-01-27T09:23:36.318Z,1028.68
2023-01-27T09:24:36.565Z,1028.67
2023-01-27T09:25:36.808Z,1028.71
2023-01-27T09:26:37.058Z,1028.68
2023-01-27T09:27:39.927Z,1028.71
2023-01-27T09:28:37.574Z,1028.72
2023-01-27T09:29:37.783Z,1028.72
2023-01-27T09:30:40.783Z,1028.70
2023-01-27T09:31:38.409Z,1028.70
2023-01-27T09:32:38.626Z,1028.75
2023-01-27T09:33:38.688Z,1028.70
2023-01-27T09:34:38.916Z,1028.72
2023-01-27T09:35:39.143Z,1028.68
2023-01-27T09:36:39.359Z,1028.70
2023-01-27T09:37:39.645Z,1028.75
2023-01-27T09:38:39.789Z,1028.67
2023-01-27T09:39:39.998Z,1028.64
2023-01-27T09:40:40.223Z,1028.70
2023-01-27T09:41:40.437Z,1028.71
2023-01-27T09:42:40.701Z,1028.70
2023-01-27T09:43:40.894Z,1028.65
2023-01-27T09:44:41.172Z,1028.65
2023-01-27T09:45:41.302Z,1028.65
2023-01-27T09:46:41.511Z,1028.65
2023-01-27T09:47:41.764Z,1028.65
2023-01-27T09:48:41.977Z,1028.69
2023-01-27T09:49:42.145Z,1028.69
2023-01-27T09:50:42.366Z,1028.67
2023-01-27T09:51:42.581Z,1028.67
2023-01-27T09:52:47.764Z,1028.64
2023-01-27T09:53:43.044Z,1028.63
2023-01-27T09:54:43.221Z,1028.65
2023-01-27T09:55:43.457Z,1028.69
2023-01-27T09:56:43.668Z,1028.66
2023-01-27T09:57:43.947Z,1028.67
2023-01-27T09:58:44.218Z,1028.69
2023-01-27T09:59:44.647Z,1028.68
2023-01-27T10:00:44.629Z,1028.63
2023-01-27T10:01:44.906Z,1028.69
2023-01-27T10:02:45.075Z,1028.69
2023-01-27T10:03:45.318Z,1028.66
2023-01-27T10:04:45.777Z,1028.61
2023-01-27T10:05:45.796Z,1028.64
2023-01-27T10:06:46.029Z,1028.64
2023-01-27T10:07:46.267Z,1028.61
2023-01-27T10:08:46.492Z,1028.67
2023-01-27T10:09:46.766Z,1028.63
2023-01-27T10:10:46.963Z,1028.63
2023-01-27T10:11:47.206Z,1028.62
2023-01-27T10:12:47.422Z,1028.58
2023-01-27T10:13:47.732Z,1028.60
2023-01-27T10:14:48.120Z,1028.54
2023-01-27T10:15:48.236Z,1028.54
2023-01-27T10:16:48.340Z,1028.49
2023-01-27T10:17:48.581Z,1028.51
2023-01-27T10:18:48.819Z,1028.53
2023-01-27T10:19:49.196Z,1028.49
2023-01-27T10:20:49.514Z,1028.51
2023-01-27T10:21:49.857Z,1028.53
2023-01-27T10:22:49.781Z,1028.50
2023-01-27T10:23:50.181Z,1028.50
2023-01-27T10:24:50.466Z,1028.54
2023-01-27T10:25:50.630Z,1028.53
2023-01-27T10:26:50.877Z,1028.50
2023-01-27T10:27:51.023Z,1028.52
2023-01-27T10:28:51.298Z,1028.51
2023-01-27T10:29:51.503Z,1028.49
2023-01-27T10:30:51.848Z,1028.54
2023-01-27T10:31:52.282Z,1028.47
2023-01-27T10:32:52.224Z,1028.48
2023-01-27T10:33:52.479Z,1028.51
2023-01-27T10:34:52.768Z,1028.53
2023-01-27T10:35:52.926Z,1028.58
2023-01-27T10:36:53.164Z,1028.60
2023-01-27T10:37:53.391Z,1028.61
2023-01-27T10:38:53.721Z,1028.64
2023-01-27T10:39:53.871Z,1028.59
2023-01-27T10:40:54.116Z,1028.63
2023-01-27T10:41:54.370Z,1028.57
2023-01-27T10:42:54.610Z,1028.59
2023-01-27T10:43:54.905Z,1028.62
2023-01-27T10:44:55.091Z,1028.63
2023-01-27T10:45:55.397Z,1028.64
2023-01-27T10:46:55.643Z,1028.62
2023-01-27T10:47:55.794Z,1028.61
2023-01-27T10:48:56.060Z,1028.64
2023-01-27T10:49:56.270Z,1028.65
2023-01-27T10:50:56.503Z,1028.62
2023-01-27T10:51:56.752Z,1028.60
2023-01-27T10:52:56.987Z,1028.60
2023-01-27T10:53:57.262Z,1028.59
2023-01-27T10:54:57.454Z,1028.56
2023-01-27T10:55:57.692Z,1028.53
2023-01-27T10:56:57.899Z,1028.49
2023-01-27T10:57:58.150Z,1028.54
2023-01-27T10:58:58.354Z,1028.51
2023-01-27T11:00:23.658Z,1028.52
2023-01-27T11:01:20.314Z,1028.50
2023-01-27T11:01:59.059Z,1028.50
2023-01-27T11:02:59.238Z,1028.49
2023-01-27T11:03:59.552Z,1028.47
2023-01-27T11:04:59.723Z,1028.48
2023-01-27T11:05:59.949Z,1028.50
2023-01-27T11:07:00.177Z,1028.47
2023-01-27T11:08:00.408Z,1028.53
2023-01-27T11:09:00.888Z,1028.50
2023-01-27T11:10:00.876Z,1028.49
2023-01-27T11:11:01.151Z,1028.48
2023-01-27T11:12:01.352Z,1028.49
2023-01-27T11:13:01.582Z,1028.48
2023-01-27T11:14:01.850Z,1028.52
2023-01-27T11:15:02.081Z,1028.53
2023-01-27T11:16:02.282Z,1028.52
2023-01-27T11:17:02.564Z,1028.48
2023-01-27T11:18:02.898Z,1028.48
2023-01-27T11:19:02.988Z,1028.45
2023-01-27T11:20:03.218Z,1028.45
2023-01-27T11:21:03.474Z,1028.45
2023-01-27T11:22:08.829Z,1028.51
2023-01-27T11:23:03.933Z,1028.51
2023-01-27T11:24:04.129Z,1028.48
2023-01-27T11:25:04.321Z,1028.49
2023-01-27T11:26:04.507Z,1028.49
2023-01-27T11:27:04.714Z,1028.45
2023-01-27T11:28:04.981Z,1028.46
2023-01-27T11:29:05.166Z,1028.41
2023-01-27T11:30:05.390Z,1028.44
2023-01-27T11:31:05.658Z,1028.44
2023-01-27T11:32:05.863Z,1028.38
2023-01-27T11:33:06.073Z,1028.33
2023-01-27T11:34:06.155Z,1028.41
2023-01-27T11:35:06.361Z,1028.36
2023-01-27T11:36:06.555Z,1028.36
2023-01-27T11:37:06.767Z,1028.38
2023-01-27T11:38:15.486Z,1028.40
2023-01-27T11:39:07.182Z,1028.38
2023-01-27T11:40:07.418Z,1028.38
2023-01-27T11:41:07.615Z,1028.36
2023-01-27T11:42:07.838Z,1028.37
2023-01-27T11:43:08.196Z,1028.39
2023-01-27T11:44:08.281Z,1028.39
2023-01-27T11:45:08.467Z,1028.37
2023-01-27T11:46:08.738Z,1028.41
2023-01-27T11:47:08.878Z,1028.37
2023-01-27T11:48:09.168Z,1028.40
2023-01-27T11:49:09.302Z,1028.42
2023-01-27T11:50:09.510Z,1028.41
2023-01-27T11:51:09.780Z,1028.42
2023-01-27T11:52:09.900Z,1028.37
2023-01-27T11:53:10.102Z,1028.36
2023-01-27T11:54:10.303Z,1028.33
2023-01-27T11:55:10.523Z,1028.34
2023-01-27T11:56:10.851Z,1028.30
2023-01-27T11:57:10.938Z,1028.34
2023-01-27T11:58:11.163Z,1028.32
2023-01-27T11:59:11.420Z,1028.30
2023-01-27T12:00:12.125Z,1028.30
2023-01-27T12:01:11.999Z,1028.32
2023-01-27T12:02:12.134Z,1028.29
2023-01-27T12:03:12.377Z,1028.33
2023-01-27T12:04:12.650Z,1028.31
2023-01-27T12:05:12.861Z,1028.33
2023-01-27T12:06:13.262Z,1028.30
2023-01-27T12:07:13.350Z,1028.26
2023-01-27T12:08:13.591Z,1028.30